Main page
METAR-TAF:

METAR-TAF

Airports :

Malmen Airbase

Linköping, Sweden

latitude: 58-24N, longitude: 015-31E, elevation: 93 m

Current weather observation

The report was made 24 minutes ago, at 22:20 UTC
Wind 13 kt from the West/Southwest
Temperature 5°C
Humidity 87%
Pressure 1018 hPa
Visibility 10 km or more

METAR: ESCF 212220Z AUTO 25013KT 9999 BKN150/// 05/03 Q1018

Time: 23:44 (22:44 UTC)

Forecast

The report was made 5 hours and 9 minutes ago, at 17:35 UTC
Forecast valid from 21 at 18 UTC to 21 at 21 UTC
Wind 10 kt from the West
Visibility 10 km or more
no clouds below 1500 m and no cumulonimbus

TAF: ESCF 211735Z 2118/2121 27010KT CAVOK RMK MIL

Weather observations and forecasts of more than 4000 airports (METAR and TAF reports).

The available stations are represented by yellow and red dots on the map.

Hover mouse over dot to see the name of the station.

Then click to see weather observations and forecasts.

To change the map : click on the green buttons with a black cross to zoom in, on the green button with a dash to zoom out, or on the green arrows for adjacent maps.


METAR-TAF: